createdAt,value
2023-02-15T00:00:12.845Z,92.66
2023-02-15T00:02:40.355Z,92.83
2023-02-15T00:05:08.722Z,93.03
2023-02-15T00:07:35.610Z,92.65
2023-02-15T00:10:04.643Z,92.51
2023-02-15T00:12:31.420Z,92.71
2023-02-15T00:14:58.531Z,92.65
2023-02-15T00:17:25.806Z,92.54
2023-02-15T00:19:52.610Z,92.02
2023-02-15T00:22:19.627Z,91.75
2023-02-15T00:24:46.346Z,91.96
2023-02-15T00:27:14.753Z,91.95
2023-02-15T00:29:41.706Z,92.13
2023-02-15T00:32:08.470Z,91.97
2023-02-15T00:34:35.552Z,92.14
2023-02-15T00:37:02.343Z,92.40
2023-02-15T00:39:29.412Z,92.18
2023-02-15T00:41:56.147Z,91.63
2023-02-15T00:44:24.303Z,91.34
2023-02-15T00:46:50.954Z,91.29
2023-02-15T00:49:17.610Z,90.98
2023-02-15T00:51:44.630Z,90.91
2023-02-15T00:54:11.644Z,90.72
2023-02-15T00:56:38.570Z,90.33
2023-02-15T00:59:05.312Z,90.24
2023-02-15T01:01:33.571Z,89.98
2023-02-15T01:04:00.242Z,89.53
2023-02-15T01:06:27.043Z,89.55
2023-02-15T01:08:54.134Z,89.34
2023-02-15T01:11:23.376Z,88.95
2023-02-15T01:13:51.841Z,88.91
2023-02-15T01:16:19.293Z,88.68
2023-02-15T01:18:48.219Z,88.70
2023-02-15T01:21:17.241Z,88.33
2023-02-15T01:23:44.584Z,89.21
2023-02-15T01:26:11.629Z,89.03
2023-02-15T01:28:39.087Z,88.58
2023-02-15T01:31:07.561Z,87.56
2023-02-15T01:33:35.661Z,86.59
2023-02-15T01:36:05.200Z,85.87
2023-02-15T01:38:32.229Z,85.44
2023-02-15T01:40:59.130Z,85.67
2023-02-15T01:43:41.201Z,85.15
2023-02-15T01:46:10.219Z,84.99
2023-02-15T01:48:44.186Z,84.30
2023-02-15T01:51:13.968Z,83.09
2023-02-15T01:53:45.661Z,81.59
2023-02-15T01:56:17.701Z,80.07
2023-02-15T01:58:45.282Z,78.92
2023-02-15T02:01:12.265Z,77.87
2023-02-15T02:03:48.018Z,77.03
2023-02-15T02:06:16.509Z,75.89
2023-02-15T02:08:44.726Z,75.42
2023-02-15T02:11:12.251Z,74.40
2023-02-15T02:13:40.346Z,74.20
2023-02-15T02:16:15.762Z,73.65
2023-02-15T02:18:55.887Z,73.37
2023-02-15T02:21:57.119Z,73.03
2023-02-15T02:25:02.147Z,73.01
2023-02-15T02:27:38.610Z,72.19
2023-02-15T02:30:38.227Z,71.59
2023-02-15T02:33:29.361Z,70.92
2023-02-15T02:36:07.814Z,70.11
2023-02-15T02:38:49.257Z,68.88
2023-02-15T02:41:21.993Z,69.44
2023-02-15T02:43:55.955Z,70.11
2023-02-15T02:46:29.205Z,69.77
2023-02-15T02:48:58.085Z,69.97
2023-02-15T02:51:25.410Z,70.17
2023-02-15T02:53:56.108Z,69.95
2023-02-15T02:56:30.446Z,70.41
2023-02-15T02:59:03.232Z,70.37
2023-02-15T03:01:36.427Z,70.53
2023-02-15T03:04:11.013Z,71.57
2023-02-15T03:06:42.740Z,71.17
2023-02-15T03:09:16.985Z,71.26
2023-02-15T03:11:46.059Z,71.05
2023-02-15T03:14:16.150Z,71.53
2023-02-15T03:16:47.452Z,72.47
2023-02-15T03:19:19.832Z,73.00
2023-02-15T03:21:49.358Z,73.67
2023-02-15T03:24:21.088Z,73.58
2023-02-15T03:26:51.981Z,73.85
2023-02-15T03:29:22.343Z,74.47
2023-02-15T03:31:55.643Z,74.30
2023-02-15T03:34:24.731Z,73.47
2023-02-15T03:36:57.703Z,73.59
2023-02-15T03:39:31.117Z,73.71
2023-02-15T03:42:09.501Z,74.02
2023-02-15T03:44:47.347Z,74.01
2023-02-15T03:47:18.846Z,73.32
2023-02-15T03:49:52.293Z,73.40
2023-02-15T03:52:21.516Z,73.09
2023-02-15T03:54:50.429Z,72.87
2023-02-15T03:57:21.864Z,72.95
2023-02-15T03:59:48.970Z,73.40
2023-02-15T04:02:25.224Z,74.10
2023-02-15T04:04:53.299Z,74.30
2023-02-15T04:07:20.293Z,73.76
2023-02-15T04:09:46.980Z,74.28
2023-02-15T04:12:13.888Z,73.10
2023-02-15T04:14:40.571Z,72.62
2023-02-15T04:17:07.814Z,72.16
2023-02-15T04:19:35.275Z,71.95
2023-02-15T04:22:03.646Z,71.69
2023-02-15T04:24:30.391Z,71.80
2023-02-15T04:26:57.353Z,71.42
2023-02-15T04:29:25.980Z,71.05
2023-02-15T04:31:53.754Z,71.38
2023-02-15T04:34:20.542Z,70.73
2023-02-15T04:36:47.358Z,70.95
2023-02-15T04:39:17.690Z,70.40
2023-02-15T04:41:45.333Z,70.08
2023-02-15T04:44:12.184Z,70.17
2023-02-15T04:46:39.186Z,68.98
2023-02-15T04:49:06.086Z,68.17
2023-02-15T04:51:33.218Z,68.39
2023-02-15T04:54:00.076Z,68.91
2023-02-15T04:56:28.156Z,69.11
2023-02-15T04:58:54.867Z,69.00
2023-02-15T05:01:21.844Z,69.01
2023-02-15T05:03:48.903Z,68.76
2023-02-15T05:06:15.718Z,68.92
2023-02-15T05:08:42.466Z,69.48
2023-02-15T05:11:09.306Z,69.24
2023-02-15T05:13:37.745Z,68.92
2023-02-15T05:16:04.937Z,69.21
2023-02-15T05:18:31.988Z,69.43
2023-02-15T05:20:59.040Z,70.31
2023-02-15T05:23:25.879Z,71.09
2023-02-15T05:25:52.724Z,70.80
2023-02-15T05:28:19.511Z,70.82
2023-02-15T05:30:49.307Z,71.16
2023-02-15T05:33:16.280Z,71.24
2023-02-15T05:35:43.167Z,71.77
2023-02-15T05:38:10.214Z,72.82
2023-02-15T05:40:37.272Z,72.70
2023-02-15T05:43:04.343Z,73.05
2023-02-15T05:45:31.142Z,72.46
2023-02-15T05:47:59.383Z,72.69
2023-02-15T05:50:26.158Z,73.90
2023-02-15T05:52:53.407Z,74.35
2023-02-15T05:55:20.240Z,73.75
2023-02-15T05:57:47.189Z,73.93
2023-02-15T06:00:15.486Z,73.49
2023-02-15T06:02:42.412Z,73.58
2023-02-15T06:05:10.775Z,74.23
2023-02-15T06:07:37.614Z,74.29
2023-02-15T06:10:05.452Z,74.60
2023-02-15T06:12:32.559Z,75.33
2023-02-15T06:14:59.406Z,75.31
2023-02-15T06:17:26.098Z,75.60
2023-02-15T06:19:52.920Z,75.77
2023-02-15T06:22:21.250Z,75.66
2023-02-15T06:24:47.993Z,76.47
2023-02-15T06:27:14.711Z,77.15
2023-02-15T06:29:41.777Z,77.02
2023-02-15T06:32:08.655Z,77.46
2023-02-15T06:34:35.526Z,77.75
2023-02-15T06:37:02.668Z,79.09
2023-02-15T06:39:31.256Z,80.24
2023-02-15T06:41:58.992Z,80.25
2023-02-15T06:44:26.251Z,80.50
2023-02-15T06:46:53.365Z,80.05
2023-02-15T06:49:20.159Z,79.67
2023-02-15T06:51:47.205Z,79.49
2023-02-15T06:54:14.623Z,79.01
2023-02-15T06:56:43.033Z,78.45
2023-02-15T06:59:10.031Z,79.15
2023-02-15T07:01:36.817Z,78.84
2023-02-15T07:04:03.773Z,78.34
2023-02-15T07:06:32.532Z,78.31
2023-02-15T07:08:59.286Z,78.91
2023-02-15T07:11:27.630Z,79.49
2023-02-15T07:13:56.117Z,79.53
2023-02-15T07:16:23.118Z,79.73
2023-02-15T07:18:49.892Z,80.27
2023-02-15T07:21:16.654Z,80.81
2023-02-15T07:23:43.487Z,80.82
2023-02-15T07:26:10.798Z,80.78
2023-02-15T07:28:38.150Z,81.31
2023-02-15T07:31:06.862Z,81.88
2023-02-15T07:33:35.816Z,82.88
2023-02-15T07:36:06.599Z,83.29
2023-02-15T07:38:35.472Z,83.03
2023-02-15T07:41:03.330Z,83.29
2023-02-15T07:43:30.932Z,82.57
2023-02-15T07:46:00.397Z,82.04
2023-02-15T07:48:28.904Z,80.78
2023-02-15T07:50:59.580Z,80.22
2023-02-15T07:53:26.298Z,79.52
2023-02-15T07:55:53.185Z,79.21
2023-02-15T07:58:20.400Z,78.99
2023-02-15T08:00:47.137Z,78.55
2023-02-15T08:03:14.055Z,78.46
2023-02-15T08:05:44.246Z,78.20
2023-02-15T08:08:12.441Z,77.90
2023-02-15T08:10:39.256Z,77.75
2023-02-15T08:13:06.015Z,77.16
2023-02-15T08:15:35.657Z,76.47
2023-02-15T08:18:02.484Z,75.27
2023-02-15T08:20:29.378Z,74.48
2023-02-15T08:22:57.661Z,73.44
2023-02-15T08:25:24.456Z,73.15
2023-02-15T08:27:51.809Z,72.66
2023-02-15T08:30:18.594Z,72.35
2023-02-15T08:32:45.654Z,71.96
2023-02-15T08:35:12.780Z,71.04
2023-02-15T08:37:39.565Z,70.36
2023-02-15T08:40:09.727Z,68.55
2023-02-15T08:42:36.505Z,67.37
2023-02-15T08:45:03.713Z,66.80
2023-02-15T08:47:30.575Z,67.00
2023-02-15T08:49:57.772Z,66.79
2023-02-15T08:52:24.896Z,66.03
2023-02-15T08:54:51.708Z,65.96
2023-02-15T08:57:20.204Z,65.92
2023-02-15T08:59:47.948Z,65.89
2023-02-15T09:02:14.681Z,66.08
2023-02-15T09:04:41.814Z,66.05
2023-02-15T09:07:08.570Z,65.79
2023-02-15T09:09:35.321Z,65.60
2023-02-15T09:12:02.350Z,65.08
2023-02-15T09:14:30.551Z,64.05
2023-02-15T09:16:57.382Z,62.36
2023-02-15T09:19:24.674Z,61.04
2023-02-15T09:21:51.827Z,60.13
2023-02-15T09:24:19.339Z,58.77
2023-02-15T09:26:48.159Z,57.62
2023-02-15T09:29:16.042Z,56.87
2023-02-15T09:31:46.446Z,56.56
2023-02-15T09:34:14.811Z,56.85
2023-02-15T09:36:42.409Z,57.00
2023-02-15T09:39:11.579Z,57.13
2023-02-15T09:42:04.489Z,55.84
2023-02-15T09:44:47.828Z,54.31
2023-02-15T09:47:35.885Z,53.99
2023-02-15T09:50:10.452Z,53.39
2023-02-15T09:52:54.919Z,52.41
2023-02-15T09:55:44.787Z,52.85
2023-02-15T09:58:24.999Z,52.84
2023-02-15T10:01:00.275Z,52.59
2023-02-15T10:03:48.248Z,52.89
2023-02-15T10:06:30.031Z,52.51
2023-02-15T10:09:28.907Z,52.24
2023-02-15T10:12:15.494Z,51.15
2023-02-15T10:15:08.839Z,50.87
2023-02-15T10:17:50.659Z,51.38
2023-02-15T10:20:29.392Z,50.48
2023-02-15T10:23:09.628Z,49.34
2023-02-15T10:25:44.382Z,48.98
2023-02-15T10:28:18.496Z,50.05
2023-02-15T10:30:49.040Z,49.13
2023-02-15T10:33:36.072Z,49.34
2023-02-15T10:36:14.799Z,49.85
2023-02-15T10:38:47.039Z,50.17
2023-02-15T10:41:28.213Z,50.99
2023-02-15T10:44:15.224Z,51.28
2023-02-15T10:47:03.023Z,51.01
2023-02-15T10:49:52.751Z,51.48
2023-02-15T10:52:35.834Z,52.13
2023-02-15T10:55:12.166Z,53.29
2023-02-15T10:57:53.073Z,53.91
2023-02-15T11:00:29.997Z,54.73
2023-02-15T11:03:16.095Z,54.84
2023-02-15T11:05:52.231Z,54.75
2023-02-15T11:08:23.571Z,55.14
2023-02-15T11:10:55.844Z,53.90
2023-02-15T11:13:27.448Z,53.39
2023-02-15T11:15:58.610Z,53.74
2023-02-15T11:18:32.391Z,54.12
2023-02-15T11:21:03.421Z,55.00
2023-02-15T11:23:36.345Z,56.39
2023-02-15T11:26:08.030Z,56.17
2023-02-15T11:28:39.258Z,56.54
2023-02-15T11:31:16.649Z,56.80
2023-02-15T11:33:47.616Z,56.73
2023-02-15T11:36:18.649Z,57.05
2023-02-15T11:38:50.341Z,57.42
2023-02-15T11:41:22.094Z,56.64
2023-02-15T11:43:54.621Z,56.01
2023-02-15T11:46:21.839Z,56.41
2023-02-15T11:48:49.766Z,56.85
2023-02-15T11:51:21.617Z,57.81
2023-02-15T11:53:52.921Z,58.81
2023-02-15T11:56:22.764Z,59.32
2023-02-15T11:58:55.788Z,59.54
2023-02-15T12:01:30.129Z,60.75
2023-02-15T12:04:00.593Z,62.75
2023-02-15T12:06:30.916Z,63.10
2023-02-15T12:09:06.430Z,63.36
2023-02-15T12:11:37.031Z,63.36
2023-02-15T12:14:06.103Z,63.89
2023-02-15T12:16:41.578Z,64.27
2023-02-15T12:19:22.467Z,64.92
2023-02-15T12:21:53.044Z,65.92
2023-02-15T12:24:24.204Z,66.67
2023-02-15T12:27:00.711Z,67.11
2023-02-15T12:29:32.305Z,67.71
2023-02-15T12:32:00.283Z,67.66
2023-02-15T12:34:31.866Z,68.21
2023-02-15T12:37:03.784Z,68.14
2023-02-15T12:39:32.750Z,68.50
2023-02-15T12:42:06.214Z,68.18
2023-02-15T12:44:35.522Z,68.02
2023-02-15T12:47:04.566Z,69.15
2023-02-15T12:49:33.258Z,68.68
2023-02-15T12:52:02.714Z,69.16
2023-02-15T12:54:34.062Z,68.71
2023-02-15T12:57:14.005Z,68.78
2023-02-15T12:59:49.741Z,68.33
2023-02-15T13:02:23.569Z,68.33
2023-02-15T13:04:51.392Z,70.13
2023-02-15T13:07:18.736Z,71.70
2023-02-15T13:09:48.917Z,72.40
2023-02-15T13:12:21.574Z,74.04
2023-02-15T13:14:50.904Z,73.44
2023-02-15T13:17:19.771Z,74.50
2023-02-15T13:19:50.814Z,75.09
2023-02-15T13:22:21.368Z,74.43
2023-02-15T13:24:56.344Z,74.48
2023-02-15T13:27:28.905Z,75.97
2023-02-15T13:30:00.121Z,76.43
2023-02-15T13:32:31.442Z,76.02
2023-02-15T13:35:00.526Z,77.54
2023-02-15T13:37:48.133Z,77.99
2023-02-15T13:40:23.529Z,77.26
2023-02-15T13:42:58.064Z,76.29
2023-02-15T13:45:37.458Z,75.64
2023-02-15T13:48:18.489Z,75.28
2023-02-15T13:51:09.309Z,74.67
2023-02-15T13:53:52.811Z,73.79
2023-02-15T13:56:29.925Z,73.14
2023-02-15T13:59:13.998Z,74.64
2023-02-15T14:01:46.800Z,74.59
2023-02-15T14:04:35.045Z,73.62
2023-02-15T14:07:21.311Z,72.70
2023-02-15T14:09:59.554Z,73.46
2023-02-15T14:12:38.466Z,76.41
2023-02-15T14:15:16.057Z,75.89
2023-02-15T14:17:54.705Z,76.04
2023-02-15T14:20:30.996Z,75.29
2023-02-15T14:23:08.702Z,75.51
2023-02-15T14:25:41.681Z,74.14
2023-02-15T14:28:15.773Z,74.76
2023-02-15T14:30:47.234Z,76.43
2023-02-15T14:33:34.483Z,78.11
2023-02-15T14:36:02.661Z,77.74
2023-02-15T14:38:47.834Z,78.38
2023-02-15T14:41:19.965Z,78.38
2023-02-15T14:43:56.073Z,78.50
2023-02-15T14:46:32.176Z,78.62
2023-02-15T14:49:07.452Z,79.40
2023-02-15T14:51:58.964Z,79.99
2023-02-15T14:54:54.652Z,79.16
2023-02-15T14:57:37.266Z,79.86
2023-02-15T15:00:46.140Z,81.28
2023-02-15T15:03:24.124Z,81.16
2023-02-15T15:05:55.232Z,81.10
2023-02-15T15:08:33.965Z,80.49
2023-02-15T15:11:43.996Z,78.88
2023-02-15T15:14:32.899Z,78.62
2023-02-15T15:17:00.619Z,78.88
2023-02-15T15:20:03.856Z,76.30
2023-02-15T15:22:32.079Z,75.33
2023-02-15T15:24:59.633Z,74.98
2023-02-15T15:27:48.086Z,76.02
2023-02-15T15:30:50.323Z,76.25
2023-02-15T15:33:59.729Z,75.44
2023-02-15T15:37:20.149Z,74.53
2023-02-15T15:40:35.010Z,69.21
2023-02-15T15:43:32.029Z,67.94
2023-02-15T15:46:12.839Z,66.44
2023-02-15T15:48:41.754Z,66.24
2023-02-15T15:51:18.798Z,66.90
2023-02-15T15:53:48.626Z,66.60
2023-02-15T15:56:20.311Z,66.55
2023-02-15T15:58:53.235Z,65.58
2023-02-15T16:01:27.571Z,65.13
2023-02-15T16:03:56.656Z,64.99
2023-02-15T16:06:35.721Z,64.19
2023-02-15T16:09:19.107Z,63.76
2023-02-15T16:11:49.166Z,63.99
2023-02-15T16:14:27.244Z,63.82
2023-02-15T16:16:57.393Z,63.32
2023-02-15T16:19:28.301Z,63.43
2023-02-15T16:21:58.893Z,62.85
2023-02-15T16:24:53.160Z,61.84
2023-02-15T16:27:38.224Z,61.50
2023-02-15T16:30:25.997Z,61.04
2023-02-15T16:33:04.103Z,61.25
2023-02-15T16:35:31.713Z,61.37
2023-02-15T16:37:58.633Z,61.86
2023-02-15T16:40:41.982Z,61.64
2023-02-15T16:43:17.385Z,61.42
2023-02-15T16:45:46.346Z,61.52
2023-02-15T16:48:20.173Z,61.60
2023-02-15T16:50:53.219Z,62.33
2023-02-15T16:53:24.232Z,64.37
2023-02-15T16:55:55.087Z,65.83
2023-02-15T16:58:28.539Z,68.07
2023-02-15T17:00:59.700Z,68.97
2023-02-15T17:03:27.419Z,69.94
2023-02-15T17:05:56.410Z,70.57
2023-02-15T17:08:32.018Z,71.31
2023-02-15T17:11:06.709Z,71.51
2023-02-15T17:13:33.493Z,71.78
2023-02-15T17:16:28.284Z,72.36
2023-02-15T17:18:58.679Z,73.07
2023-02-15T17:21:31.588Z,73.18
2023-02-15T17:24:01.011Z,73.40
2023-02-15T17:26:31.526Z,73.96
2023-02-15T17:29:02.213Z,74.64
2023-02-15T17:31:33.430Z,75.41
2023-02-15T17:34:01.780Z,75.95
2023-02-15T17:36:30.804Z,76.98
2023-02-15T17:39:05.869Z,77.69
2023-02-15T17:41:34.197Z,77.99
2023-02-15T17:44:02.338Z,78.76
2023-02-15T17:46:33.836Z,78.99
2023-02-15T17:49:00.908Z,79.48
2023-02-15T17:51:28.715Z,79.01
2023-02-15T17:53:56.129Z,79.07
2023-02-15T17:56:22.918Z,79.03
2023-02-15T17:58:49.690Z,78.96
2023-02-15T18:01:21.027Z,79.57
2023-02-15T18:03:51.779Z,80.38
2023-02-15T18:06:19.031Z,80.78
2023-02-15T18:08:45.822Z,80.84
2023-02-15T18:11:13.903Z,81.02
2023-02-15T18:13:40.584Z,81.51
2023-02-15T18:16:14.508Z,81.43
2023-02-15T18:18:42.321Z,81.63
2023-02-15T18:21:12.152Z,82.34
2023-02-15T18:23:39.402Z,81.95
2023-02-15T18:26:06.873Z,81.52
2023-02-15T18:28:33.947Z,81.33
2023-02-15T18:31:01.551Z,81.02
2023-02-15T18:33:35.895Z,81.55
2023-02-15T18:36:05.778Z,80.94
2023-02-15T18:38:34.505Z,81.07
2023-02-15T18:41:03.801Z,81.32
2023-02-15T18:43:31.137Z,81.26
2023-02-15T18:45:58.241Z,80.83
2023-02-15T18:48:25.038Z,80.86
2023-02-15T18:50:52.157Z,80.60
2023-02-15T18:53:21.519Z,80.68
2023-02-15T18:55:49.789Z,80.65
2023-02-15T18:58:19.336Z,80.95
2023-02-15T19:00:46.787Z,81.30
2023-02-15T19:03:14.591Z,81.82
2023-02-15T19:05:44.350Z,81.82
2023-02-15T19:08:18.077Z,82.10
2023-02-15T19:10:45.476Z,81.54
2023-02-15T19:13:14.111Z,81.10
2023-02-15T19:15:42.276Z,80.93
2023-02-15T19:18:10.916Z,80.75
2023-02-15T19:20:39.918Z,80.49
2023-02-15T19:23:15.419Z,80.47
2023-02-15T19:25:42.859Z,80.75
2023-02-15T19:28:19.710Z,81.06
2023-02-15T19:30:46.846Z,81.24
2023-02-15T19:33:18.819Z,81.90
2023-02-15T19:35:47.480Z,82.15
2023-02-15T19:38:18.630Z,82.36
2023-02-15T19:40:46.644Z,83.00
2023-02-15T19:43:19.713Z,83.21
2023-02-15T19:45:47.331Z,83.13
2023-02-15T19:48:14.299Z,83.06
2023-02-15T19:50:42.120Z,82.95
2023-02-15T19:53:20.619Z,83.27
2023-02-15T19:55:47.673Z,83.81
2023-02-15T19:58:16.155Z,83.79
2023-02-15T20:00:42.959Z,83.80
2023-02-15T20:03:10.083Z,83.71
2023-02-15T20:05:37.762Z,83.85
2023-02-15T20:08:06.232Z,83.77
2023-02-15T20:10:33.067Z,83.45
2023-02-15T20:13:00.299Z,83.18
2023-02-15T20:15:29.760Z,83.03
2023-02-15T20:17:58.253Z,82.94
2023-02-15T20:20:31.765Z,82.97
2023-02-15T20:22:59.625Z,82.72
2023-02-15T20:25:28.724Z,82.66
2023-02-15T20:27:56.770Z,82.52
2023-02-15T20:30:26.088Z,82.56
2023-02-15T20:32:57.301Z,82.37
2023-02-15T20:35:25.837Z,82.52
2023-02-15T20:37:55.378Z,82.45
2023-02-15T20:40:24.754Z,82.64
2023-02-15T20:42:51.626Z,82.56
2023-02-15T20:45:21.382Z,83.04
2023-02-15T20:47:48.870Z,82.93
2023-02-15T20:50:20.822Z,82.69
2023-02-15T20:52:49.916Z,82.68
2023-02-15T20:55:19.218Z,82.87
2023-02-15T20:57:47.514Z,82.84
2023-02-15T21:00:17.601Z,82.93
2023-02-15T21:02:44.895Z,82.95
2023-02-15T21:05:24.714Z,83.26
2023-02-15T21:07:53.759Z,83.80
2023-02-15T21:10:23.123Z,84.24
2023-02-15T21:12:51.144Z,84.47
2023-02-15T21:15:31.641Z,84.42
2023-02-15T21:18:00.532Z,84.63
2023-02-15T21:20:31.242Z,85.08
2023-02-15T21:23:00.661Z,85.39
2023-02-15T21:25:31.817Z,85.50
2023-02-15T21:27:58.647Z,85.11
2023-02-15T21:30:26.292Z,85.00
2023-02-15T21:32:53.655Z,84.50
2023-02-15T21:35:21.396Z,84.18
2023-02-15T21:37:51.619Z,83.86
2023-02-15T21:40:21.259Z,83.65
2023-02-15T21:42:48.384Z,83.82
2023-02-15T21:45:16.240Z,84.22
2023-02-15T21:47:43.738Z,84.60
2023-02-15T21:50:14.512Z,85.13
2023-02-15T21:52:41.245Z,85.98
2023-02-15T21:55:13.904Z,86.66
2023-02-15T21:57:40.692Z,86.86
2023-02-15T22:00:14.206Z,86.48
2023-02-15T22:02:43.735Z,84.55
2023-02-15T22:05:14.581Z,83.75
2023-02-15T22:07:41.902Z,82.58
2023-02-15T22:10:11.710Z,82.15
2023-02-15T22:12:39.437Z,81.88
2023-02-15T22:15:07.136Z,81.50
2023-02-15T22:17:34.139Z,81.32
2023-02-15T22:20:01.001Z,81.30
2023-02-15T22:22:27.831Z,81.27
2023-02-15T22:24:54.826Z,81.28
2023-02-15T22:27:26.111Z,81.47
2023-02-15T22:29:53.939Z,81.76
2023-02-15T22:32:23.004Z,82.43
2023-02-15T22:34:50.937Z,82.61
2023-02-15T22:37:18.072Z,82.52
2023-02-15T22:39:44.901Z,82.01
2023-02-15T22:42:21.079Z,81.85
2023-02-15T22:44:49.176Z,81.64
2023-02-15T22:47:21.158Z,81.34
2023-02-15T22:49:48.034Z,81.11
2023-02-15T22:52:15.577Z,80.82
2023-02-15T22:54:42.623Z,80.74
2023-02-15T22:57:16.265Z,80.95
2023-02-15T22:59:43.302Z,80.73
2023-02-15T23:02:14.451Z,81.21
2023-02-15T23:04:41.992Z,81.40
2023-02-15T23:07:14.281Z,81.05
2023-02-15T23:09:41.456Z,80.83
2023-02-15T23:12:24.065Z,80.14
2023-02-15T23:14:51.547Z,80.65
2023-02-15T23:17:20.468Z,81.03
2023-02-15T23:19:48.735Z,80.91
2023-02-15T23:22:17.004Z,80.67
2023-02-15T23:24:47.643Z,80.51
2023-02-15T23:27:17.036Z,80.66
2023-02-15T23:29:43.776Z,80.91
2023-02-15T23:32:13.666Z,80.63
2023-02-15T23:34:43.120Z,80.68
2023-02-15T23:37:13.075Z,80.74
2023-02-15T23:39:39.915Z,81.13
2023-02-15T23:42:13.277Z,81.18
2023-02-15T23:44:41.112Z,81.32
2023-02-15T23:47:19.772Z,81.47
2023-02-15T23:49:48.171Z,81.13
2023-02-15T23:52:14.963Z,80.98
2023-02-15T23:54:42.070Z,80.78
2023-02-15T23:57:12.455Z,80.61
2023-02-15T23:59:43.692Z,80.56
